sensor_id;sensor_type;location;lat;lon;timestamp;temperature;humidity
68701;DHT22;55682;51.114;5.882;2023-02-16T00:00:29;8.29;69.69
68701;DHT22;55682;51.114;5.882;2023-02-16T00:02:56;8.37;69.36
68701;DHT22;55682;51.114;5.882;2023-02-16T00:05:25;8.30;69.67
68701;DHT22;55682;51.114;5.882;2023-02-16T00:07:52;8.27;69.58
68701;DHT22;55682;51.114;5.882;2023-02-16T00:10:18;8.27;69.61
68701;DHT22;55682;51.114;5.882;2023-02-16T00:12:44;8.28;69.60
68701;DHT22;55682;51.114;5.882;2023-02-16T00:15:28;8.29;69.54
68701;DHT22;55682;51.114;5.882;2023-02-16T00:17:57;8.24;69.62
68701;DHT22;55682;51.114;5.882;2023-02-16T00:20:23;8.15;69.84
68701;DHT22;55682;51.114;5.882;2023-02-16T00:22:48;8.23;69.81
68701;DHT22;55682;51.114;5.882;2023-02-16T00:25:14;8.18;69.94
68701;DHT22;55682;51.114;5.882;2023-02-16T00:27:39;8.20;69.78
68701;DHT22;55682;51.114;5.882;2023-02-16T00:30:16;8.14;69.94
68701;DHT22;55682;51.114;5.882;2023-02-16T00:32:43;8.15;69.93
68701;DHT22;55682;51.114;5.882;2023-02-16T00:35:20;8.16;69.91
68701;DHT22;55682;51.114;5.882;2023-02-16T00:37:47;8.11;70.08
68701;DHT22;55682;51.114;5.882;2023-02-16T00:40:15;8.05;70.29
68701;DHT22;55682;51.114;5.882;2023-02-16T00:42:44;8.05;70.13
68701;DHT22;55682;51.114;5.882;2023-02-16T00:45:17;8.04;70.12
68701;DHT22;55682;51.114;5.882;2023-02-16T00:47:49;7.88;70.68
68701;DHT22;55682;51.114;5.882;2023-02-16T00:52:49;7.87;70.68
68701;DHT22;55682;51.114;5.882;2023-02-16T00:55:18;7.88;70.61
68701;DHT22;55682;51.114;5.882;2023-02-16T00:57:55;7.94;70.40
68701;DHT22;55682;51.114;5.882;2023-02-16T01:00:29;7.94;70.31
68701;DHT22;55682;51.114;5.882;2023-02-16T01:02:59;7.84;70.61
68701;DHT22;55682;51.114;5.882;2023-02-16T01:05:25;7.86;70.55
68701;DHT22;55682;51.114;5.882;2023-02-16T01:07:51;7.90;70.35
68701;DHT22;55682;51.114;5.882;2023-02-16T01:10:37;7.94;70.08
68701;DHT22;55682;51.114;5.882;2023-02-16T01:13:22;7.91;70.09
68701;DHT22;55682;51.114;5.882;2023-02-16T01:15:49;7.84;70.26
68701;DHT22;55682;51.114;5.882;2023-02-16T01:18:17;7.82;70.31
68701;DHT22;55682;51.114;5.882;2023-02-16T01:20:44;7.82;70.00
68701;DHT22;55682;51.114;5.882;2023-02-16T01:23:10;7.86;69.99
68701;DHT22;55682;51.114;5.882;2023-02-16T01:25:37;7.87;69.90
68701;DHT22;55682;51.114;5.882;2023-02-16T01:28:16;7.85;69.97
68701;DHT22;55682;51.114;5.882;2023-02-16T01:30:42;7.93;69.63
68701;DHT22;55682;51.114;5.882;2023-02-16T01:33:10;7.84;69.81
68701;DHT22;55682;51.114;5.882;2023-02-16T01:35:35;7.81;69.82
68701;DHT22;55682;51.114;5.882;2023-02-16T01:38:01;7.77;69.99
68701;DHT22;55682;51.114;5.882;2023-02-16T01:43:21;7.68;70.31
68701;DHT22;55682;51.114;5.882;2023-02-16T01:46:16;7.63;70.48
68701;DHT22;55682;51.114;5.882;2023-02-16T01:48:40;7.71;70.24
68701;DHT22;55682;51.114;5.882;2023-02-16T01:51:18;7.60;70.48
68701;DHT22;55682;51.114;5.882;2023-02-16T01:54:11;7.60;70.58
68701;DHT22;55682;51.114;5.882;2023-02-16T01:56:53;7.45;71.00
68701;DHT22;55682;51.114;5.882;2023-02-16T02:02:06;7.42;71.21
68701;DHT22;55682;51.114;5.882;2023-02-16T02:10:50;7.32;71.53
68701;DHT22;55682;51.114;5.882;2023-02-16T02:13:42;7.25;71.78
68701;DHT22;55682;51.114;5.882;2023-02-16T02:16:11;7.27;71.64
68701;DHT22;55682;51.114;5.882;2023-02-16T02:18:41;7.27;71.90
68701;DHT22;55682;51.114;5.882;2023-02-16T02:21:27;7.14;72.16
68701;DHT22;55682;51.114;5.882;2023-02-16T02:25:01;7.11;72.27
68701;DHT22;55682;51.114;5.882;2023-02-16T02:27:40;7.07;72.38
68701;DHT22;55682;51.114;5.882;2023-02-16T02:38:51;6.95;72.80
68701;DHT22;55682;51.114;5.882;2023-02-16T02:42:03;6.95;72.70
68701;DHT22;55682;51.114;5.882;2023-02-16T02:44:56;7.03;72.52
68701;DHT22;55682;51.114;5.882;2023-02-16T02:47:22;6.99;72.82
68701;DHT22;55682;51.114;5.882;2023-02-16T02:49:52;6.95;72.77
68701;DHT22;55682;51.114;5.882;2023-02-16T02:52:20;6.96;72.68
68701;DHT22;55682;51.114;5.882;2023-02-16T02:54:48;6.98;72.81
68701;DHT22;55682;51.114;5.882;2023-02-16T02:57:41;7.01;72.73
68701;DHT22;55682;51.114;5.882;2023-02-16T03:05:52;7.04;72.74
68701;DHT22;55682;51.114;5.882;2023-02-16T03:08:24;7.08;72.64
68701;DHT22;55682;51.114;5.882;2023-02-16T03:11:21;7.14;72.59
68701;DHT22;55682;51.114;5.882;2023-02-16T03:14:14;7.03;73.03
68701;DHT22;55682;51.114;5.882;2023-02-16T03:16:45;7.12;72.81
68701;DHT22;55682;51.114;5.882;2023-02-16T03:19:14;7.08;72.93
68701;DHT22;55682;51.114;5.882;2023-02-16T03:22:01;7.10;73.01
68701;DHT22;55682;51.114;5.882;2023-02-16T03:24:46;7.02;73.17
68701;DHT22;55682;51.114;5.882;2023-02-16T03:27:35;7.01;73.25
68701;DHT22;55682;51.114;5.882;2023-02-16T03:30:23;7.05;73.20
68701;DHT22;55682;51.114;5.882;2023-02-16T03:32:51;7.01;73.38
68701;DHT22;55682;51.114;5.882;2023-02-16T03:35:18;6.98;73.51
68701;DHT22;55682;51.114;5.882;2023-02-16T03:37:44;7.02;73.41
68701;DHT22;55682;51.114;5.882;2023-02-16T03:40:14;7.00;73.63
68701;DHT22;55682;51.114;5.882;2023-02-16T03:43:03;6.97;73.72
68701;DHT22;55682;51.114;5.882;2023-02-16T03:45:36;6.89;74.26
68701;DHT22;55682;51.114;5.882;2023-02-16T03:48:02;6.94;74.09
68701;DHT22;55682;51.114;5.882;2023-02-16T03:50:29;6.93;74.28
68701;DHT22;55682;51.114;5.882;2023-02-16T03:52:55;7.01;74.15
68701;DHT22;55682;51.114;5.882;2023-02-16T03:55:46;6.95;74.37
68701;DHT22;55682;51.114;5.882;2023-02-16T03:58:18;6.93;74.38
68701;DHT22;55682;51.114;5.882;2023-02-16T04:00:43;6.91;74.63
68701;DHT22;55682;51.114;5.882;2023-02-16T04:03:10;6.89;74.87
68701;DHT22;55682;51.114;5.882;2023-02-16T04:05:37;6.98;74.41
68701;DHT22;55682;51.114;5.882;2023-02-16T04:08:03;7.02;74.44
68701;DHT22;55682;51.114;5.882;2023-02-16T04:10:28;7.00;74.53
68701;DHT22;55682;51.114;5.882;2023-02-16T04:12:54;7.10;74.38
68701;DHT22;55682;51.114;5.882;2023-02-16T04:15:23;7.08;74.25
68701;DHT22;55682;51.114;5.882;2023-02-16T04:17:49;7.14;74.16
68701;DHT22;55682;51.114;5.882;2023-02-16T04:20:18;7.15;74.14
68701;DHT22;55682;51.114;5.882;2023-02-16T04:22:45;7.08;74.44
68701;DHT22;55682;51.114;5.882;2023-02-16T04:25:12;7.10;74.30
68701;DHT22;55682;51.114;5.882;2023-02-16T04:27:39;7.07;74.41
68701;DHT22;55682;51.114;5.882;2023-02-16T04:30:10;7.03;74.41
68701;DHT22;55682;51.114;5.882;2023-02-16T04:32:36;7.01;74.66
68701;DHT22;55682;51.114;5.882;2023-02-16T04:35:01;7.07;74.52
68701;DHT22;55682;51.114;5.882;2023-02-16T04:37:27;7.02;74.61
68701;DHT22;55682;51.114;5.882;2023-02-16T04:39:52;7.01;74.73
68701;DHT22;55682;51.114;5.882;2023-02-16T04:42:18;7.05;74.73
68701;DHT22;55682;51.114;5.882;2023-02-16T04:44:44;7.08;74.73
68701;DHT22;55682;51.114;5.882;2023-02-16T04:47:09;7.11;74.74
68701;DHT22;55682;51.114;5.882;2023-02-16T04:49:35;7.12;74.69
68701;DHT22;55682;51.114;5.882;2023-02-16T04:52:01;7.19;74.65
68701;DHT22;55682;51.114;5.882;2023-02-16T04:54:29;7.27;74.41
68701;DHT22;55682;51.114;5.882;2023-02-16T04:56:55;7.28;74.18
68701;DHT22;55682;51.114;5.882;2023-02-16T04:59:21;7.31;73.93
68701;DHT22;55682;51.114;5.882;2023-02-16T05:01:49;7.27;73.89
68701;DHT22;55682;51.114;5.882;2023-02-16T05:04:15;7.26;73.80
68701;DHT22;55682;51.114;5.882;2023-02-16T05:06:41;7.22;73.84
68701;DHT22;55682;51.114;5.882;2023-02-16T05:09:08;7.19;73.89
68701;DHT22;55682;51.114;5.882;2023-02-16T05:11:34;7.18;73.99
68701;DHT22;55682;51.114;5.882;2023-02-16T05:14:30;7.12;74.17
68701;DHT22;55682;51.114;5.882;2023-02-16T05:19:35;7.15;74.29
68701;DHT22;55682;51.114;5.882;2023-02-16T05:22:01;7.17;74.29
68701;DHT22;55682;51.114;5.882;2023-02-16T05:24:26;7.20;74.20
68701;DHT22;55682;51.114;5.882;2023-02-16T05:26:52;7.24;74.16
68701;DHT22;55682;51.114;5.882;2023-02-16T05:29:18;7.28;73.96
68701;DHT22;55682;51.114;5.882;2023-02-16T05:31:43;7.34;73.80
68701;DHT22;55682;51.114;5.882;2023-02-16T05:34:09;7.35;73.79
68701;DHT22;55682;51.114;5.882;2023-02-16T05:36:35;7.35;73.88
68701;DHT22;55682;51.114;5.882;2023-02-16T05:39:00;7.37;74.01
68701;DHT22;55682;51.114;5.882;2023-02-16T05:41:26;7.45;73.66
68701;DHT22;55682;51.114;5.882;2023-02-16T05:43:57;7.57;73.23
68701;DHT22;55682;51.114;5.882;2023-02-16T05:46:24;7.53;73.44
68701;DHT22;55682;51.114;5.882;2023-02-16T05:48:50;7.61;73.21
68701;DHT22;55682;51.114;5.882;2023-02-16T05:51:17;7.60;73.32
68701;DHT22;55682;51.114;5.882;2023-02-16T05:53:44;7.67;73.13
68701;DHT22;55682;51.114;5.882;2023-02-16T05:56:09;7.67;73.25
68701;DHT22;55682;51.114;5.882;2023-02-16T05:58:35;7.71;73.03
68701;DHT22;55682;51.114;5.882;2023-02-16T06:01:01;7.70;73.22
68701;DHT22;55682;51.114;5.882;2023-02-16T06:03:26;7.76;73.03
68701;DHT22;55682;51.114;5.882;2023-02-16T06:05:58;7.79;72.91
68701;DHT22;55682;51.114;5.882;2023-02-16T06:08:24;7.84;72.80
68701;DHT22;55682;51.114;5.882;2023-02-16T06:10:51;7.88;72.60
68701;DHT22;55682;51.114;5.882;2023-02-16T06:13:17;7.89;72.66
68701;DHT22;55682;51.114;5.882;2023-02-16T06:15:44;7.93;72.58
68701;DHT22;55682;51.114;5.882;2023-02-16T06:18:11;7.98;72.46
68701;DHT22;55682;51.114;5.882;2023-02-16T06:20:37;8.11;72.01
68701;DHT22;55682;51.114;5.882;2023-02-16T06:23:04;8.04;72.42
68701;DHT22;55682;51.114;5.882;2023-02-16T06:25:30;8.17;71.97
68701;DHT22;55682;51.114;5.882;2023-02-16T06:27:56;8.14;72.14
68701;DHT22;55682;51.114;5.882;2023-02-16T06:30:25;8.20;71.86
68701;DHT22;55682;51.114;5.882;2023-02-16T06:32:51;8.24;71.74
68701;DHT22;55682;51.114;5.882;2023-02-16T06:35:16;8.27;71.75
68701;DHT22;55682;51.114;5.882;2023-02-16T06:37:43;8.24;71.99
68701;DHT22;55682;51.114;5.882;2023-02-16T06:40:10;8.30;71.87
68701;DHT22;55682;51.114;5.882;2023-02-16T06:42:39;8.38;71.63
68701;DHT22;55682;51.114;5.882;2023-02-16T06:45:05;8.37;71.75
68701;DHT22;55682;51.114;5.882;2023-02-16T06:47:31;8.41;71.67
68701;DHT22;55682;51.114;5.882;2023-02-16T06:49:57;8.39;71.74
68701;DHT22;55682;51.114;5.882;2023-02-16T06:52:22;8.48;71.45
68701;DHT22;55682;51.114;5.882;2023-02-16T06:54:48;8.50;71.45
68701;DHT22;55682;51.114;5.882;2023-02-16T06:57:14;8.48;71.57
68701;DHT22;55682;51.114;5.882;2023-02-16T06:59:39;8.61;71.10
68701;DHT22;55682;51.114;5.882;2023-02-16T07:02:05;8.66;70.81
68701;DHT22;55682;51.114;5.882;2023-02-16T07:04:31;8.68;70.79
68701;DHT22;55682;51.114;5.882;2023-02-16T07:06:56;8.65;70.77
68701;DHT22;55682;51.114;5.882;2023-02-16T07:09:22;8.66;70.90
68701;DHT22;55682;51.114;5.882;2023-02-16T07:11:47;8.71;70.78
68701;DHT22;55682;51.114;5.882;2023-02-16T07:14:13;8.78;70.37
68701;DHT22;55682;51.114;5.882;2023-02-16T07:16:40;8.76;70.45
68701;DHT22;55682;51.114;5.882;2023-02-16T07:19:06;8.76;70.61
68701;DHT22;55682;51.114;5.882;2023-02-16T07:21:32;8.76;70.56
68701;DHT22;55682;51.114;5.882;2023-02-16T07:23:57;8.82;70.45
68701;DHT22;55682;51.114;5.882;2023-02-16T07:26:23;8.82;70.42
68701;DHT22;55682;51.114;5.882;2023-02-16T07:28:49;8.92;70.16
68701;DHT22;55682;51.114;5.882;2023-02-16T07:31:16;8.98;69.95
68701;DHT22;55682;51.114;5.882;2023-02-16T07:33:42;9.01;69.73
68701;DHT22;55682;51.114;5.882;2023-02-16T07:36:10;9.06;69.44
68701;DHT22;55682;51.114;5.882;2023-02-16T07:38:36;9.14;69.39
68701;DHT22;55682;51.114;5.882;2023-02-16T07:41:02;9.14;69.45
68701;DHT22;55682;51.114;5.882;2023-02-16T07:43:28;9.19;69.42
68701;DHT22;55682;51.114;5.882;2023-02-16T07:45:53;9.25;68.97
68701;DHT22;55682;51.114;5.882;2023-02-16T07:48:19;9.32;69.33
68701;DHT22;55682;51.114;5.882;2023-02-16T07:50:45;9.37;68.52
68701;DHT22;55682;51.114;5.882;2023-02-16T07:53:11;9.39;68.79
68701;DHT22;55682;51.114;5.882;2023-02-16T07:55:41;9.45;68.34
68701;DHT22;55682;51.114;5.882;2023-02-16T07:58:07;9.40;68.14
68701;DHT22;55682;51.114;5.882;2023-02-16T08:00:33;9.33;68.52
68701;DHT22;55682;51.114;5.882;2023-02-16T08:02:59;9.30;68.66
68701;DHT22;55682;51.114;5.882;2023-02-16T08:05:24;9.33;68.83
68701;DHT22;55682;51.114;5.882;2023-02-16T08:07:50;9.37;68.85
68701;DHT22;55682;51.114;5.882;2023-02-16T08:10:16;9.47;68.52
68701;DHT22;55682;51.114;5.882;2023-02-16T08:12:42;9.56;68.33
68701;DHT22;55682;51.114;5.882;2023-02-16T08:15:08;9.60;68.20
68701;DHT22;55682;51.114;5.882;2023-02-16T08:17:35;9.70;68.12
68701;DHT22;55682;51.114;5.882;2023-02-16T08:20:01;9.84;68.00
68701;DHT22;55682;51.114;5.882;2023-02-16T08:22:26;9.92;67.56
68701;DHT22;55682;51.114;5.882;2023-02-16T08:24:53;10.03;67.28
68701;DHT22;55682;51.114;5.882;2023-02-16T08:27:19;10.18;66.69
68701;DHT22;55682;51.114;5.882;2023-02-16T08:29:45;10.08;67.17
68701;DHT22;55682;51.114;5.882;2023-02-16T08:32:12;10.09;66.75
68701;DHT22;55682;51.114;5.882;2023-02-16T08:34:39;10.16;66.88
68701;DHT22;55682;51.114;5.882;2023-02-16T08:37:05;10.15;67.07
68701;DHT22;55682;51.114;5.882;2023-02-16T08:39:31;10.27;66.80
68701;DHT22;55682;51.114;5.882;2023-02-16T08:41:59;10.30;66.72
68701;DHT22;55682;51.114;5.882;2023-02-16T08:44:26;10.31;66.79
68701;DHT22;55682;51.114;5.882;2023-02-16T08:46:54;10.31;66.90
68701;DHT22;55682;51.114;5.882;2023-02-16T08:49:22;10.35;66.72
68701;DHT22;55682;51.114;5.882;2023-02-16T08:51:51;10.29;67.17
68701;DHT22;55682;51.114;5.882;2023-02-16T08:54:20;10.33;67.14
68701;DHT22;55682;51.114;5.882;2023-02-16T08:56:46;10.28;67.39
68701;DHT22;55682;51.114;5.882;2023-02-16T08:59:18;10.22;67.77
68701;DHT22;55682;51.114;5.882;2023-02-16T09:01:44;10.26;67.93
68701;DHT22;55682;51.114;5.882;2023-02-16T09:04:11;10.37;67.70
68701;DHT22;55682;51.114;5.882;2023-02-16T09:06:39;10.49;67.82
68701;DHT22;55682;51.114;5.882;2023-02-16T09:09:06;10.68;67.13
68701;DHT22;55682;51.114;5.882;2023-02-16T09:11:33;10.74;67.17
68701;DHT22;55682;51.114;5.882;2023-02-16T09:13:59;10.87;66.86
68701;DHT22;55682;51.114;5.882;2023-02-16T09:16:25;10.92;66.71
68701;DHT22;55682;51.114;5.882;2023-02-16T09:18:53;10.99;66.39
68701;DHT22;55682;51.114;5.882;2023-02-16T09:21:22;11.03;66.41
68701;DHT22;55682;51.114;5.882;2023-02-16T09:23:51;11.14;66.05
68701;DHT22;55682;51.114;5.882;2023-02-16T09:26:20;11.05;66.50
68701;DHT22;55682;51.114;5.882;2023-02-16T09:28:47;11.05;66.89
68701;DHT22;55682;51.114;5.882;2023-02-16T09:31:16;11.18;66.07
68701;DHT22;55682;51.114;5.882;2023-02-16T09:33:44;11.07;66.43
68701;DHT22;55682;51.114;5.882;2023-02-16T09:36:11;11.08;66.64
68701;DHT22;55682;51.114;5.882;2023-02-16T09:38:39;11.04;67.03
68701;DHT22;55682;51.114;5.882;2023-02-16T09:41:40;11.05;66.83
68701;DHT22;55682;51.114;5.882;2023-02-16T09:46:45;10.92;67.43
68701;DHT22;55682;51.114;5.882;2023-02-16T09:49:35;10.92;67.43
68701;DHT22;55682;51.114;5.882;2023-02-16T09:54:50;10.69;68.17
68701;DHT22;55682;51.114;5.882;2023-02-16T10:00:03;10.77;68.47
68701;DHT22;55682;51.114;5.882;2023-02-16T10:02:41;10.75;68.63
68701;DHT22;55682;51.114;5.882;2023-02-16T10:08:11;10.87;68.13
68701;DHT22;55682;51.114;5.882;2023-02-16T10:13:21;10.92;68.10
68701;DHT22;55682;51.114;5.882;2023-02-16T10:15:52;10.89;68.18
68701;DHT22;55682;51.114;5.882;2023-02-16T10:18:27;11.03;67.96
68701;DHT22;55682;51.114;5.882;2023-02-16T10:20:59;10.96;68.39
68701;DHT22;55682;51.114;5.882;2023-02-16T10:23:46;11.07;68.61
68701;DHT22;55682;51.114;5.882;2023-02-16T10:26:14;11.23;68.01
68701;DHT22;55682;51.114;5.882;2023-02-16T10:29:06;11.16;68.68
68701;DHT22;55682;51.114;5.882;2023-02-16T10:34:48;11.33;68.04
68701;DHT22;55682;51.114;5.882;2023-02-16T10:39:39;11.39;68.17
68701;DHT22;55682;51.114;5.882;2023-02-16T10:44:47;11.37;68.44
68701;DHT22;55682;51.114;5.882;2023-02-16T10:47:35;11.40;67.84
68701;DHT22;55682;51.114;5.882;2023-02-16T10:52:42;11.42;67.72
68701;DHT22;55682;51.114;5.882;2023-02-16T10:55:11;11.26;68.49
68701;DHT22;55682;51.114;5.882;2023-02-16T10:57:38;11.29;68.33
68701;DHT22;55682;51.114;5.882;2023-02-16T11:00:11;11.25;68.57
68701;DHT22;55682;51.114;5.882;2023-02-16T11:02:42;11.18;68.50
68701;DHT22;55682;51.114;5.882;2023-02-16T11:05:47;11.19;68.84
68701;DHT22;55682;51.114;5.882;2023-02-16T11:08:13;11.18;68.97
68701;DHT22;55682;51.114;5.882;2023-02-16T11:10:46;11.30;68.28
68701;DHT22;55682;51.114;5.882;2023-02-16T11:13:27;11.32;68.26
68701;DHT22;55682;51.114;5.882;2023-02-16T11:15:56;11.41;68.21
68701;DHT22;55682;51.114;5.882;2023-02-16T11:20:55;11.51;67.87
68701;DHT22;55682;51.114;5.882;2023-02-16T11:23:39;11.46;67.99
68701;DHT22;55682;51.114;5.882;2023-02-16T11:28:45;11.42;68.55
68701;DHT22;55682;51.114;5.882;2023-02-16T11:36:32;11.48;68.85
68701;DHT22;55682;51.114;5.882;2023-02-16T11:39:23;11.53;68.88
68701;DHT22;55682;51.114;5.882;2023-02-16T11:41:54;11.67;68.41
68701;DHT22;55682;51.114;5.882;2023-02-16T11:44:34;11.64;69.19
68701;DHT22;55682;51.114;5.882;2023-02-16T11:47:05;11.83;68.36
68701;DHT22;55682;51.114;5.882;2023-02-16T11:49:40;12.02;68.14
68701;DHT22;55682;51.114;5.882;2023-02-16T11:52:25;12.11;67.69
68701;DHT22;55682;51.114;5.882;2023-02-16T11:54:58;12.16;67.97
68701;DHT22;55682;51.114;5.882;2023-02-16T11:59:49;12.43;67.28
68701;DHT22;55682;51.114;5.882;2023-02-16T12:02:21;12.44;67.09
68701;DHT22;55682;51.114;5.882;2023-02-16T12:16:39;12.82;66.76
68701;DHT22;55682;51.114;5.882;2023-02-16T12:19:32;12.75;67.69
68701;DHT22;55682;51.114;5.882;2023-02-16T12:22:22;12.88;67.59
68701;DHT22;55682;51.114;5.882;2023-02-16T12:36:01;13.29;65.90
68701;DHT22;55682;51.114;5.882;2023-02-16T12:43:47;13.39;65.50
68701;DHT22;55682;51.114;5.882;2023-02-16T12:46:25;13.47;65.54
68701;DHT22;55682;51.114;5.882;2023-02-16T12:48:55;13.51;65.37
68701;DHT22;55682;51.114;5.882;2023-02-16T12:51:36;13.52;65.07
68701;DHT22;55682;51.114;5.882;2023-02-16T12:57:02;13.30;65.20
68701;DHT22;55682;51.114;5.882;2023-02-16T12:59:38;13.19;66.36
68701;DHT22;55682;51.114;5.882;2023-02-16T13:02:39;13.23;66.00
68701;DHT22;55682;51.114;5.882;2023-02-16T13:05:10;13.31;65.50
68701;DHT22;55682;51.114;5.882;2023-02-16T13:07:46;13.44;65.19
68701;DHT22;55682;51.114;5.882;2023-02-16T13:10:35;13.35;65.75
68701;DHT22;55682;51.114;5.882;2023-02-16T13:13:08;13.55;64.97
68701;DHT22;55682;51.114;5.882;2023-02-16T13:15:41;13.49;65.46
68701;DHT22;55682;51.114;5.882;2023-02-16T13:18:23;13.60;65.10
68701;DHT22;55682;51.114;5.882;2023-02-16T13:21:03;13.59;65.04
68701;DHT22;55682;51.114;5.882;2023-02-16T13:26:44;13.85;64.11
68701;DHT22;55682;51.114;5.882;2023-02-16T13:29:27;13.86;64.10
68701;DHT22;55682;51.114;5.882;2023-02-16T13:45:41;13.92;64.53
68701;DHT22;55682;51.114;5.882;2023-02-16T13:48:29;13.93;64.56
68701;DHT22;55682;51.114;5.882;2023-02-16T13:51:10;14.08;64.57
68701;DHT22;55682;51.114;5.882;2023-02-16T13:53:42;14.01;64.08
68701;DHT22;55682;51.114;5.882;2023-02-16T14:01:45;14.05;64.88
68701;DHT22;55682;51.114;5.882;2023-02-16T14:06:48;14.25;63.76
68701;DHT22;55682;51.114;5.882;2023-02-16T14:14:35;14.03;64.85
68701;DHT22;55682;51.114;5.882;2023-02-16T14:17:16;14.13;64.66
68701;DHT22;55682;51.114;5.882;2023-02-16T14:22:19;14.33;63.92
68701;DHT22;55682;51.114;5.882;2023-02-16T14:24:54;14.40;63.78
68701;DHT22;55682;51.114;5.882;2023-02-16T14:28:00;14.47;63.81
68701;DHT22;55682;51.114;5.882;2023-02-16T14:40:56;14.39;64.01
68701;DHT22;55682;51.114;5.882;2023-02-16T14:46:27;14.44;63.34
68701;DHT22;55682;51.114;5.882;2023-02-16T15:03:17;14.44;62.41
68701;DHT22;55682;51.114;5.882;2023-02-16T15:05:53;14.47;62.27
68701;DHT22;55682;51.114;5.882;2023-02-16T15:08:24;14.40;62.38
68701;DHT22;55682;51.114;5.882;2023-02-16T15:10:59;14.26;62.48
68701;DHT22;55682;51.114;5.882;2023-02-16T15:13:27;14.39;62.46
68701;DHT22;55682;51.114;5.882;2023-02-16T15:15:59;14.48;62.02
68701;DHT22;55682;51.114;5.882;2023-02-16T15:18:32;14.36;62.24
68701;DHT22;55682;51.114;5.882;2023-02-16T15:20:58;14.38;61.97
68701;DHT22;55682;51.114;5.882;2023-02-16T15:23:31;14.35;62.31
68701;DHT22;55682;51.114;5.882;2023-02-16T15:26:01;14.38;61.85
68701;DHT22;55682;51.114;5.882;2023-02-16T15:28:38;14.29;61.91
68701;DHT22;55682;51.114;5.882;2023-02-16T15:31:13;14.28;61.90
68701;DHT22;55682;51.114;5.882;2023-02-16T15:34:01;14.28;62.14
68701;DHT22;55682;51.114;5.882;2023-02-16T15:36:42;14.29;61.67
68701;DHT22;55682;51.114;5.882;2023-02-16T15:39:24;14.33;61.63
68701;DHT22;55682;51.114;5.882;2023-02-16T15:41:51;14.36;61.51
68701;DHT22;55682;51.114;5.882;2023-02-16T15:44:34;14.33;60.99
68701;DHT22;55682;51.114;5.882;2023-02-16T15:47:22;14.32;61.44
68701;DHT22;55682;51.114;5.882;2023-02-16T15:49:49;14.38;61.36
68701;DHT22;55682;51.114;5.882;2023-02-16T15:54:50;14.45;60.85
68701;DHT22;55682;51.114;5.882;2023-02-16T15:57:31;14.44;60.83
68701;DHT22;55682;51.114;5.882;2023-02-16T15:59:59;14.40;60.99
68701;DHT22;55682;51.114;5.882;2023-02-16T16:02:41;14.45;60.89
68701;DHT22;55682;51.114;5.882;2023-02-16T16:07:46;14.42;61.11
68701;DHT22;55682;51.114;5.882;2023-02-16T16:10:22;14.39;61.19
68701;DHT22;55682;51.114;5.882;2023-02-16T16:12:57;14.39;61.23
68701;DHT22;55682;51.114;5.882;2023-02-16T16:15:25;14.32;61.62
68701;DHT22;55682;51.114;5.882;2023-02-16T16:17:53;14.30;61.70
68701;DHT22;55682;51.114;5.882;2023-02-16T16:20:36;14.17;62.12
68701;DHT22;55682;51.114;5.882;2023-02-16T16:23:26;14.20;62.20
68701;DHT22;55682;51.114;5.882;2023-02-16T16:25:52;14.20;62.20
68701;DHT22;55682;51.114;5.882;2023-02-16T16:36:35;14.13;62.82
68701;DHT22;55682;51.114;5.882;2023-02-16T16:42:13;14.05;63.33
68701;DHT22;55682;51.114;5.882;2023-02-16T16:44:56;14.09;63.24
68701;DHT22;55682;51.114;5.882;2023-02-16T16:47:29;13.97;63.79
68701;DHT22;55682;51.114;5.882;2023-02-16T16:50:02;13.84;64.37
68701;DHT22;55682;51.114;5.882;2023-02-16T16:54:59;13.88;64.54
68701;DHT22;55682;51.114;5.882;2023-02-16T16:57:25;13.91;64.35
68701;DHT22;55682;51.114;5.882;2023-02-16T16:59:51;13.84;64.57
68701;DHT22;55682;51.114;5.882;2023-02-16T17:02:17;13.78;64.79
68701;DHT22;55682;51.114;5.882;2023-02-16T17:04:42;13.83;64.77
68701;DHT22;55682;51.114;5.882;2023-02-16T17:07:08;13.79;64.98
68701;DHT22;55682;51.114;5.882;2023-02-16T17:09:33;13.79;64.98
68701;DHT22;55682;51.114;5.882;2023-02-16T17:11:59;13.73;65.16
68701;DHT22;55682;51.114;5.882;2023-02-16T17:14:25;13.77;65.09
68701;DHT22;55682;51.114;5.882;2023-02-16T17:16:52;13.68;65.46
68701;DHT22;55682;51.114;5.882;2023-02-16T17:19:20;13.66;65.68
68701;DHT22;55682;51.114;5.882;2023-02-16T17:21:47;13.66;65.95
68701;DHT22;55682;51.114;5.882;2023-02-16T17:24:13;13.67;65.76
68701;DHT22;55682;51.114;5.882;2023-02-16T17:26:39;13.63;65.99
68701;DHT22;55682;51.114;5.882;2023-02-16T17:29:06;13.62;65.98
68701;DHT22;55682;51.114;5.882;2023-02-16T17:31:33;13.63;65.81
68701;DHT22;55682;51.114;5.882;2023-02-16T17:33:58;13.63;65.73
68701;DHT22;55682;51.114;5.882;2023-02-16T17:36:26;13.51;66.20
68701;DHT22;55682;51.114;5.882;2023-02-16T17:38:52;13.40;66.64
68701;DHT22;55682;51.114;5.882;2023-02-16T17:41:22;13.41;66.75
68701;DHT22;55682;51.114;5.882;2023-02-16T17:43:49;13.25;67.50
68701;DHT22;55682;51.114;5.882;2023-02-16T17:46:15;13.20;67.67
68701;DHT22;55682;51.114;5.882;2023-02-16T17:48:41;13.14;68.43
68701;DHT22;55682;51.114;5.882;2023-02-16T17:51:19;13.16;68.42
68701;DHT22;55682;51.114;5.882;2023-02-16T17:53:45;13.04;68.91
68701;DHT22;55682;51.114;5.882;2023-02-16T17:56:15;13.03;69.29
68701;DHT22;55682;51.114;5.882;2023-02-16T17:58:42;13.08;69.48
68701;DHT22;55682;51.114;5.882;2023-02-16T18:01:13;12.97;70.10
68701;DHT22;55682;51.114;5.882;2023-02-16T18:03:39;12.99;70.27
68701;DHT22;55682;51.114;5.882;2023-02-16T18:06:05;12.80;70.99
68701;DHT22;55682;51.114;5.882;2023-02-16T18:08:30;12.71;71.74
68701;DHT22;55682;51.114;5.882;2023-02-16T18:10:56;12.74;72.05
68701;DHT22;55682;51.114;5.882;2023-02-16T18:13:27;12.60;72.67
68701;DHT22;55682;51.114;5.882;2023-02-16T18:15:54;12.58;73.51
68701;DHT22;55682;51.114;5.882;2023-02-16T18:18:20;12.59;73.74
68701;DHT22;55682;51.114;5.882;2023-02-16T18:20:47;12.42;74.66
68701;DHT22;55682;51.114;5.882;2023-02-16T18:23:13;12.36;74.79
68701;DHT22;55682;51.114;5.882;2023-02-16T18:25:39;12.33;75.05
68701;DHT22;55682;51.114;5.882;2023-02-16T18:28:12;12.32;75.29
68701;DHT22;55682;51.114;5.882;2023-02-16T18:30:39;12.21;75.81
68701;DHT22;55682;51.114;5.882;2023-02-16T18:33:04;12.29;75.44
68701;DHT22;55682;51.114;5.882;2023-02-16T18:35:30;12.15;76.24
68701;DHT22;55682;51.114;5.882;2023-02-16T18:37:58;12.18;75.76
68701;DHT22;55682;51.114;5.882;2023-02-16T18:40:23;12.14;76.05
68701;DHT22;55682;51.114;5.882;2023-02-16T18:42:49;12.05;76.43
68701;DHT22;55682;51.114;5.882;2023-02-16T18:45:15;12.04;76.44
68701;DHT22;55682;51.114;5.882;2023-02-16T18:47:41;11.86;77.21
68701;DHT22;55682;51.114;5.882;2023-02-16T18:50:09;12.03;76.51
68701;DHT22;55682;51.114;5.882;2023-02-16T18:52:37;11.98;76.53
68701;DHT22;55682;51.114;5.882;2023-02-16T18:55:03;11.94;76.57
68701;DHT22;55682;51.114;5.882;2023-02-16T18:57:29;11.97;76.21
68701;DHT22;55682;51.114;5.882;2023-02-16T18:59:54;11.84;76.67